createdAt,value
2018-04-23T00:00:12.865Z,0
2018-04-23T00:01:22.944Z,0
2018-04-23T00:02:33.025Z,0
2018-04-23T00:03:42.853Z,0
2018-04-23T00:04:52.935Z,0
2018-04-23T00:06:03.017Z,0
2018-04-23T00:07:12.840Z,0
2018-04-23T00:08:22.912Z,0
2018-04-23T00:09:32.833Z,0
2018-04-23T00:10:42.923Z,0
2018-04-23T00:11:52.486Z,0
2018-04-23T00:13:02.032Z,0
2018-04-23T00:14:12.110Z,0
2018-04-23T00:15:21.976Z,0
2018-04-23T00:16:31.803Z,0
2018-04-23T00:17:41.867Z,0
2018-04-23T00:18:51.689Z,0
2018-04-23T00:20:01.807Z,0
2018-04-23T00:21:11.952Z,0
2018-04-23T00:22:21.764Z,0
2018-04-23T00:23:31.319Z,0
2018-04-23T00:24:41.452Z,0
2018-04-23T00:25:51.547Z,0
2018-04-23T00:27:01.668Z,0
2018-04-23T00:28:11.767Z,0
2018-04-23T00:29:21.847Z,0
2018-04-23T00:30:31.938Z,0
2018-04-23T00:31:42.047Z,0
2018-04-23T00:32:52.168Z,0
2018-04-23T00:34:02.250Z,0
2018-04-23T00:35:12.122Z,0
2018-04-23T00:36:21.955Z,0
2018-04-23T00:37:32.054Z,0
2018-04-23T00:38:42.173Z,0
2018-04-23T00:39:51.742Z,0
2018-04-23T00:41:01.823Z,0
2018-04-23T00:42:11.910Z,0
2018-04-23T00:43:21.997Z,0
2018-04-23T00:44:32.135Z,0
2018-04-23T00:45:42.216Z,0
2018-04-23T00:46:51.792Z,0
2018-04-23T00:48:01.869Z,0
2018-04-23T00:49:11.949Z,0
2018-04-23T00:50:22.089Z,0
2018-04-23T00:51:32.166Z,0
2018-04-23T00:52:42.243Z,0
2018-04-23T00:53:52.330Z,0
2018-04-23T00:55:02.135Z,0
2018-04-23T00:56:11.963Z,0
2018-04-23T00:57:22.046Z,0
2018-04-23T00:58:31.862Z,0
2018-04-23T00:59:41.947Z,0
2018-04-23T01:00:52.040Z,0
2018-04-23T01:02:02.119Z,0
2018-04-23T01:03:12.192Z,0
2018-04-23T01:04:22.306Z,0
2018-04-23T01:05:32.117Z,0
2018-04-23T01:06:42.190Z,0
2018-04-23T01:07:52.309Z,0
2018-04-23T01:09:02.138Z,0
2018-04-23T01:10:12.237Z,0
2018-04-23T01:11:22.306Z,0
2018-04-23T01:12:32.388Z,0
2018-04-23T01:13:42.450Z,0
2018-04-23T01:14:52.521Z,0
2018-04-23T01:16:02.605Z,0
2018-04-23T01:17:12.675Z,0
2018-04-23T01:18:22.747Z,0
2018-04-23T01:19:32.833Z,0
2018-04-23T01:20:42.372Z,0
2018-04-23T01:21:52.473Z,0
2018-04-23T01:23:02.562Z,0
2018-04-23T01:24:12.633Z,0
2018-04-23T01:25:22.733Z,0
2018-04-23T01:26:32.822Z,0
2018-04-23T01:27:42.909Z,0
2018-04-23T01:28:52.997Z,0
2018-04-23T01:30:02.814Z,0
2018-04-23T01:31:12.930Z,0
2018-04-23T01:32:23.003Z,0
2018-04-23T01:33:33.084Z,0
2018-04-23T01:34:43.148Z,0
2018-04-23T01:35:53.250Z,0
2018-04-23T01:37:03.321Z,0
2018-04-23T01:38:13.143Z,0
2018-04-23T01:39:22.973Z,0
2018-04-23T01:40:33.098Z,0
2018-04-23T01:41:43.227Z,0
2018-04-23T01:42:53.350Z,0
2018-04-23T01:44:03.155Z,0
2018-04-23T01:45:13.230Z,0
2018-04-23T01:46:23.050Z,0
2018-04-23T01:47:33.140Z,0
2018-04-23T01:48:43.211Z,0
2018-04-23T01:49:53.283Z,0
2018-04-23T01:51:03.097Z,0
2018-04-23T01:52:13.196Z,0
2018-04-23T01:53:23.281Z,0
2018-04-23T01:54:33.153Z,0
2018-04-23T01:55:43.218Z,0
2018-04-23T01:56:53.292Z,0
2018-04-23T01:58:03.376Z,0
2018-04-23T01:59:13.627Z,0
2018-04-23T02:00:23.559Z,0
2018-04-23T02:01:33.665Z,0
2018-04-23T02:02:43.812Z,0
2018-04-23T02:03:53.879Z,0
2018-04-23T02:05:03.699Z,0
2018-04-23T02:06:13.537Z,0
2018-04-23T02:07:23.606Z,0
2018-04-23T02:08:33.437Z,0
2018-04-23T02:09:43.509Z,0
2018-04-23T02:10:53.333Z,0
2018-04-23T02:12:03.446Z,0
2018-04-23T02:13:13.541Z,0
2018-04-23T02:14:23.365Z,0
2018-04-23T02:15:33.453Z,0
2018-04-23T02:16:43.527Z,0
2018-04-23T02:17:53.650Z,0
2018-04-23T02:19:03.757Z,0
2018-04-23T02:20:13.830Z,0
2018-04-23T02:21:23.425Z,0
2018-04-23T02:22:33.506Z,0
2018-04-23T02:23:43.584Z,0
2018-04-23T02:24:53.402Z,0
2018-04-23T02:26:03.491Z,0
2018-04-23T02:27:13.296Z,0
2018-04-23T02:28:23.101Z,0
2018-04-23T02:29:33.182Z,0
2018-04-23T02:30:43.370Z,0
2018-04-23T02:31:53.445Z,0
2018-04-23T02:33:03.539Z,0
2018-04-23T02:34:13.634Z,0
2018-04-23T02:35:23.766Z,0
2018-04-23T02:36:33.586Z,0
2018-04-23T02:37:43.686Z,0
2018-04-23T02:38:53.498Z,0
2018-04-23T02:40:03.589Z,0
2018-04-23T02:41:13.733Z,0
2018-04-23T02:42:23.804Z,0
2018-04-23T02:43:33.873Z,0
2018-04-23T02:44:43.966Z,0
2018-04-23T02:45:54.040Z,0
2018-04-23T02:47:03.869Z,0
2018-04-23T02:48:13.951Z,0
2018-04-23T02:49:24.028Z,0
2018-04-23T02:50:34.108Z,0
2018-04-23T02:51:44.175Z,0
2018-04-23T02:52:54.270Z,0
2018-04-23T02:54:04.085Z,0
2018-04-23T02:55:14.175Z,0
2018-04-23T02:56:23.985Z,0
2018-04-23T02:57:34.071Z,0
2018-04-23T02:58:44.162Z,0
2018-04-23T02:59:54.244Z,0
2018-04-23T03:01:04.396Z,0
2018-04-23T03:02:14.489Z,0
2018-04-23T03:34:08.865Z,16
2018-04-23T03:35:18.662Z,16
2018-04-23T03:36:28.731Z,16
2018-04-23T03:37:38.813Z,24
2018-04-23T03:38:48.899Z,28
2018-04-23T03:39:58.706Z,28
2018-04-23T03:41:08.530Z,32
2018-04-23T03:42:18.367Z,40
2018-04-23T03:43:28.441Z,48
2018-04-23T03:44:37.982Z,52
2018-04-23T03:45:48.125Z,56
2018-04-23T03:46:58.190Z,64
2018-04-23T03:48:08.004Z,72
2018-04-23T03:49:18.090Z,80
2018-04-23T03:50:28.193Z,88
2018-04-23T03:51:38.109Z,104
2018-04-23T03:52:48.183Z,112
2018-04-23T03:53:57.977Z,128
2018-04-23T03:55:07.790Z,144
2018-04-23T03:56:17.864Z,156
2018-04-23T03:57:27.938Z,172
2018-04-23T03:58:38.024Z,192
2018-04-23T03:59:47.836Z,212
2018-04-23T04:00:57.924Z,232
2018-04-23T04:02:07.749Z,252
2018-04-23T04:03:17.842Z,272
2018-04-23T04:04:27.956Z,296
2018-04-23T04:05:38.015Z,324
2018-04-23T04:06:48.086Z,348
2018-04-23T04:07:57.634Z,376
2018-04-23T04:09:07.446Z,404
2018-04-23T04:10:17.297Z,432
2018-04-23T04:11:27.401Z,460
2018-04-23T04:12:37.484Z,488
2018-04-23T04:13:47.562Z,516
2018-04-23T04:14:57.663Z,544
2018-04-23T04:16:07.743Z,580
2018-04-23T04:17:17.564Z,616
2018-04-23T04:18:27.647Z,660
2018-04-23T04:19:37.476Z,708
2018-04-23T04:20:47.545Z,764
2018-04-23T04:21:57.628Z,824
2018-04-23T04:23:07.732Z,868
2018-04-23T04:24:17.833Z,924
2018-04-23T04:25:27.924Z,972
2018-04-23T04:26:38.072Z,1012
2018-04-23T04:27:48.143Z,1068
2018-04-23T04:28:57.956Z,1132
2018-04-23T04:30:07.813Z,1348
2018-04-23T04:31:17.897Z,1628
2018-04-23T04:32:27.997Z,1728
2018-04-23T04:33:37.840Z,1768
2018-04-23T04:34:47.923Z,1716
2018-04-23T04:35:57.748Z,1744
2018-04-23T04:37:07.838Z,1752
2018-04-23T04:38:17.510Z,1488
2018-04-23T04:39:27.695Z,1372
2018-04-23T04:40:37.778Z,1588
2018-04-23T04:41:47.329Z,1776
2018-04-23T04:42:57.407Z,1816
2018-04-23T04:44:07.326Z,1740
2018-04-23T04:45:17.420Z,1232
2018-04-23T04:46:27.500Z,1208
2018-04-23T04:47:37.056Z,1280
2018-04-23T04:48:47.116Z,1204
2018-04-23T04:49:57.242Z,1204
2018-04-23T04:51:07.343Z,1248
2018-04-23T04:52:17.172Z,1496
2018-04-23T04:53:27.252Z,1272
2018-04-23T04:54:37.323Z,1256
2018-04-23T04:55:47.146Z,1308
2018-04-23T04:56:57.240Z,1680
2018-04-23T04:58:07.074Z,1880
2018-04-23T04:59:16.898Z,1592
2018-04-23T05:00:26.721Z,1660
2018-04-23T05:01:36.828Z,1780
2018-04-23T05:02:46.666Z,1908
2018-04-23T05:03:56.490Z,2048
2018-04-23T05:05:06.570Z,2188
2018-04-23T05:06:16.143Z,2324
2018-04-23T05:07:26.291Z,2476
2018-04-23T05:08:36.108Z,2644
2018-04-23T05:09:46.191Z,4376
2018-04-23T05:10:56.260Z,4536
2018-04-23T05:12:06.347Z,4960
2018-04-23T05:13:16.195Z,5028
2018-04-23T05:14:26.066Z,3888
2018-04-23T05:15:36.151Z,3332
2018-04-23T05:16:46.260Z,3512
2018-04-23T05:17:56.362Z,5444
2018-04-23T05:19:06.227Z,5368
2018-04-23T05:20:16.073Z,5428
2018-04-23T05:21:26.169Z,5520
2018-04-23T05:22:36.266Z,5496
2018-04-23T05:23:46.353Z,5232
2018-04-23T05:24:56.519Z,4712
2018-04-23T05:26:06.600Z,3052
2018-04-23T05:27:16.698Z,4740
2018-04-23T05:28:26.795Z,2900
2018-04-23T05:29:36.896Z,3180
2018-04-23T05:30:46.720Z,2804
2018-04-23T05:31:56.827Z,2944
2018-04-23T05:33:06.910Z,2952
2018-04-23T05:34:16.982Z,3012
2018-04-23T05:35:26.834Z,3080
2018-04-23T05:36:36.728Z,3152
2018-04-23T05:37:46.853Z,3200
2018-04-23T05:38:56.691Z,3252
2018-04-23T05:40:06.798Z,3320
2018-04-23T05:41:16.354Z,3408
2018-04-23T05:42:26.429Z,3512
2018-04-23T05:43:36.524Z,3556
2018-04-23T05:44:46.613Z,3548
2018-04-23T05:45:56.709Z,3712
2018-04-23T05:47:06.789Z,3512
2018-04-23T05:48:16.870Z,3568
2018-04-23T05:49:26.958Z,4280
2018-04-23T05:50:37.025Z,4300
2018-04-23T05:51:47.108Z,3668
2018-04-23T05:52:57.217Z,3540
2018-04-23T05:54:07.049Z,3224
2018-04-23T05:55:16.874Z,3260
2018-04-23T05:56:26.955Z,3300
2018-04-23T05:57:37.039Z,3340
2018-04-23T05:58:46.594Z,3336
2018-04-23T05:59:56.686Z,3236
2018-04-23T06:01:06.778Z,3716
2018-04-23T06:02:16.872Z,3768
2018-04-23T06:03:26.961Z,3368
2018-04-23T06:04:37.020Z,2408
2018-04-23T06:05:46.856Z,2244
2018-04-23T06:06:56.673Z,2060
2018-04-23T06:08:06.780Z,1988
2018-04-23T06:09:16.858Z,1892
2018-04-23T06:10:26.934Z,1724
2018-04-23T06:11:37.126Z,1520
2018-04-23T06:12:46.951Z,1320
2018-04-23T06:13:57.019Z,1144
2018-04-23T06:15:06.846Z,992
2018-04-23T06:16:16.660Z,856
2018-04-23T06:17:26.542Z,748
2018-04-23T06:18:36.647Z,648
2018-04-23T06:19:46.871Z,572
2018-04-23T06:20:56.349Z,508
2018-04-23T06:22:06.432Z,452
2018-04-23T06:23:15.992Z,408
2018-04-23T06:24:26.082Z,372
2018-04-23T06:25:36.163Z,352
2018-04-23T06:26:46.260Z,344
2018-04-23T06:27:55.821Z,352
2018-04-23T06:29:05.944Z,372
2018-04-23T06:30:16.040Z,396
2018-04-23T06:31:26.153Z,432
2018-04-23T06:32:36.257Z,476
2018-04-23T06:33:46.171Z,524
2018-04-23T06:34:56.267Z,568
2018-04-23T06:36:06.367Z,620
2018-04-23T06:37:16.454Z,676
2018-04-23T06:38:26.553Z,732
2018-04-23T06:39:36.616Z,808
2018-04-23T06:40:46.707Z,876
2018-04-23T06:41:56.783Z,956
2018-04-23T06:43:06.596Z,1020
2018-04-23T06:44:16.138Z,1068
2018-04-23T06:45:26.225Z,1112
2018-04-23T06:46:36.338Z,1148
2018-04-23T06:47:46.440Z,1172
2018-04-23T06:48:56.250Z,1228
2018-04-23T06:50:06.340Z,1320
2018-04-23T06:51:16.444Z,1440
2018-04-23T06:52:26.302Z,1552
2018-04-23T06:53:36.398Z,1656
2018-04-23T06:54:46.243Z,1728
2018-04-23T06:55:56.326Z,1796
2018-04-23T06:57:06.146Z,1872
2018-04-23T06:58:16.023Z,1968
2018-04-23T06:59:26.116Z,2056
2018-04-23T07:00:36.212Z,2140
2018-04-23T07:01:46.374Z,2232
2018-04-23T07:02:56.498Z,2332
2018-04-23T07:04:06.316Z,2444
2018-04-23T07:05:16.171Z,2584
2018-04-23T07:06:26.256Z,2748
2018-04-23T07:07:36.349Z,2908
2018-04-23T07:08:46.204Z,3076
2018-04-23T07:09:56.086Z,3240
2018-04-23T07:11:06.160Z,3412
2018-04-23T07:12:16.007Z,3608
2018-04-23T07:13:26.092Z,3844
2018-04-23T07:14:36.228Z,4152
2018-04-23T07:15:46.060Z,4948
2018-04-23T07:16:55.878Z,5352
2018-04-23T07:18:05.683Z,5544
2018-04-23T07:19:15.506Z,5652
2018-04-23T07:20:25.587Z,5764
2018-04-23T07:21:35.738Z,5320
2018-04-23T07:22:45.828Z,5256
2018-04-23T07:23:55.925Z,6040
2018-04-23T07:25:06.024Z,5752
2018-04-23T07:26:16.109Z,5916
2018-04-23T07:27:26.202Z,6100
2018-04-23T07:28:36.306Z,6148
2018-04-23T07:29:46.374Z,6188
2018-04-23T07:30:56.449Z,6328
2018-04-23T07:32:06.568Z,6208
2018-04-23T07:33:16.794Z,6204
2018-04-23T07:34:26.892Z,6312
2018-04-23T07:35:37.017Z,6260
2018-04-23T07:36:47.099Z,6128
2018-04-23T07:37:57.205Z,5808
2018-04-23T07:39:07.377Z,5556
2018-04-23T07:40:17.474Z,5528
2018-04-23T07:41:27.579Z,5124
2018-04-23T07:42:37.678Z,5048
2018-04-23T07:43:47.762Z,4920
2018-04-23T07:44:57.342Z,4908
2018-04-23T07:46:07.425Z,4940
2018-04-23T07:47:17.260Z,5252
2018-04-23T07:48:27.363Z,5596
2018-04-23T07:49:37.481Z,5752
2018-04-23T07:50:47.599Z,6104
2018-04-23T07:51:57.164Z,5888
2018-04-23T07:53:07.274Z,6116
2018-04-23T07:54:17.621Z,5916
2018-04-23T07:55:27.434Z,5980
2018-04-23T07:56:37.620Z,5560
2018-04-23T07:57:47.778Z,5600
2018-04-23T07:58:57.907Z,6832
2018-04-23T08:00:07.897Z,6880
2018-04-23T08:01:17.730Z,6992
2018-04-23T08:02:27.845Z,6984
2018-04-23T08:03:37.934Z,7052
2018-04-23T08:04:47.763Z,7184
2018-04-23T08:05:58.421Z,7252
2018-04-23T08:07:08.828Z,7364
2018-04-23T08:08:19.129Z,7372
2018-04-23T08:09:29.219Z,7360
2018-04-23T08:10:40.122Z,7320
2018-04-23T08:11:50.555Z,7340
2018-04-23T08:13:00.394Z,7332
2018-04-23T08:14:10.564Z,7292
2018-04-23T08:15:20.670Z,7256
2018-04-23T08:16:30.790Z,7200
2018-04-23T08:17:40.915Z,7216
2018-04-23T08:18:51.018Z,7200
2018-04-23T08:20:00.913Z,7168
2018-04-23T08:21:11.239Z,7156
2018-04-23T08:22:21.363Z,7136
2018-04-23T08:23:31.238Z,7080
2018-04-23T08:24:41.344Z,7016
2018-04-23T08:25:51.525Z,6976
2018-04-23T08:27:01.098Z,6948
2018-04-23T08:28:11.217Z,6908
2018-04-23T08:29:21.337Z,6880
2018-04-23T08:30:31.443Z,6864
2018-04-23T08:31:41.756Z,6804
2018-04-23T08:32:51.654Z,6772
2018-04-23T08:34:01.766Z,6732
2018-04-23T08:35:11.868Z,6768
2018-04-23T08:36:21.973Z,6760
2018-04-23T08:37:32.280Z,6772
2018-04-23T08:38:42.477Z,6760
2018-04-23T08:39:52.583Z,6756
2018-04-23T08:41:02.701Z,6796
2018-04-23T08:42:12.812Z,6744
2018-04-23T08:43:22.931Z,6724
2018-04-23T08:44:33.034Z,6744
2018-04-23T08:45:43.134Z,6668
2018-04-23T08:47:07.887Z,6608
2018-04-23T08:48:18.162Z,6636
2018-04-23T08:49:28.273Z,6612
2018-04-23T08:50:38.462Z,6620
2018-04-23T08:51:48.561Z,6576
2018-04-23T08:52:58.667Z,6508
2018-04-23T08:54:08.781Z,6580
2018-04-23T08:55:18.896Z,6516
2018-04-23T08:56:28.741Z,6536
2018-04-23T08:57:38.836Z,6576
2018-04-23T08:58:48.999Z,6508
2018-04-23T08:59:59.184Z,6488
2018-04-23T09:01:09.082Z,6408
2018-04-23T09:02:19.178Z,6392
2018-04-23T09:03:29.489Z,6364
2018-04-23T09:04:39.883Z,6464
2018-04-23T09:05:49.978Z,6492
2018-04-23T09:06:59.818Z,6432
2018-04-23T09:08:09.948Z,6624
2018-04-23T09:09:19.784Z,6528
2018-04-23T09:10:29.642Z,6620
2018-04-23T09:11:39.476Z,6508
2018-04-23T09:12:49.564Z,6536
2018-04-23T09:13:59.671Z,6584
2018-04-23T09:15:09.516Z,6672
2018-04-23T09:16:19.716Z,6752
2018-04-23T09:17:29.822Z,6828
2018-04-23T09:18:39.927Z,6748
2018-04-23T09:19:49.764Z,6872
2018-04-23T09:20:59.872Z,6752
2018-04-23T09:22:09.974Z,6692
2018-04-23T09:23:20.079Z,6588
2018-04-23T09:24:30.176Z,6492
2018-04-23T09:25:40.263Z,6692
2018-04-23T09:26:49.814Z,6984
2018-04-23T09:28:00.152Z,7128
2018-04-23T09:29:09.980Z,7152
2018-04-23T09:30:20.090Z,7228
2018-04-23T09:31:30.187Z,7004
2018-04-23T09:32:40.332Z,7072
2018-04-23T09:33:50.423Z,6824
2018-04-23T09:35:00.321Z,7288
2018-04-23T09:36:10.425Z,7388
2018-04-23T09:37:19.997Z,7444
2018-04-23T09:38:30.105Z,7460
2018-04-23T09:39:39.985Z,7460
2018-04-23T09:40:50.577Z,7712
2018-04-23T09:42:00.918Z,7808
2018-04-23T09:43:11.006Z,7820
2018-04-23T09:44:21.116Z,7732
2018-04-23T09:45:31.435Z,7784
2018-04-23T09:46:41.546Z,7724
2018-04-23T09:47:51.409Z,7608
2018-04-23T09:49:01.529Z,7624
2018-04-23T09:50:11.799Z,7692
2018-04-23T09:51:21.704Z,6944
2018-04-23T09:52:31.791Z,6220
2018-04-23T09:53:41.621Z,7952
2018-04-23T09:54:51.704Z,8120
2018-04-23T09:56:01.736Z,8124
2018-04-23T09:57:11.637Z,8160
2018-04-23T09:58:21.745Z,8104
2018-04-23T09:59:31.845Z,8040
2018-04-23T10:00:41.942Z,8128
2018-04-23T10:01:52.046Z,8144
2018-04-23T10:03:02.175Z,7860
2018-04-23T10:04:12.002Z,8212
2018-04-23T10:05:22.129Z,8316
2018-04-23T10:06:31.970Z,8396
2018-04-23T10:07:42.061Z,8448
2018-04-23T10:08:52.212Z,8464
2018-04-23T10:10:02.328Z,8416
2018-04-23T10:11:12.166Z,8244
2018-04-23T10:12:22.112Z,8200
2018-04-23T10:13:31.960Z,8448
2018-04-23T10:14:42.143Z,8372
2018-04-23T10:15:52.239Z,8248
2018-04-23T10:17:01.805Z,8204
2018-04-23T10:18:11.896Z,8168
2018-04-23T10:19:21.993Z,8076
2018-04-23T10:20:31.826Z,8096
2018-04-23T10:21:42.164Z,8088
2018-04-23T10:22:52.271Z,8076
2018-04-23T10:24:02.376Z,7988
2018-04-23T10:25:12.478Z,7960
2018-04-23T10:26:22.625Z,7824
2018-04-23T10:27:32.452Z,7860
2018-04-23T10:28:42.553Z,7816
2018-04-23T10:29:52.652Z,7884
2018-04-23T10:31:02.774Z,8052
2018-04-23T10:32:12.955Z,8076
2018-04-23T10:33:23.072Z,8144
2018-04-23T10:34:33.163Z,8120
2018-04-23T10:35:43.524Z,8284
2018-04-23T10:36:52.837Z,8296
2018-04-23T10:38:02.682Z,8268
2018-04-23T10:39:12.779Z,8240
2018-04-23T10:40:22.858Z,7868
2018-04-23T10:41:32.964Z,8168
2018-04-23T10:42:43.116Z,8152
2018-04-23T10:43:52.958Z,8216
2018-04-23T10:45:03.062Z,8228
2018-04-23T10:46:13.171Z,7972
2018-04-23T10:47:23.268Z,7788
2018-04-23T10:48:33.503Z,8312
2018-04-23T10:49:43.609Z,8388
2018-04-23T10:50:53.707Z,8584
2018-04-23T10:52:03.810Z,8512
2018-04-23T10:53:13.926Z,8572
2018-04-23T10:54:24.087Z,8592
2018-04-23T10:55:34.179Z,8456
2018-04-23T10:56:44.291Z,8540
2018-04-23T10:57:54.115Z,7940
2018-04-23T10:59:04.224Z,7848
2018-04-23T11:00:14.409Z,8456
2018-04-23T11:01:24.264Z,8660
2018-04-23T11:02:34.373Z,7860
2018-04-23T11:03:44.465Z,8084
2018-04-23T11:04:54.582Z,7328
2018-04-23T11:06:04.691Z,7092
2018-04-23T11:07:14.814Z,7860
2018-04-23T11:08:24.902Z,7632
2018-04-23T11:09:34.742Z,9088
2018-04-23T11:10:44.951Z,9212
2018-04-23T11:11:55.095Z,9768
2018-04-23T11:13:05.207Z,10024
2018-04-23T11:14:15.051Z,9444
2018-04-23T11:15:24.909Z,9868
2018-04-23T11:16:34.758Z,10156
2018-04-23T11:17:44.863Z,10228
2018-04-23T11:18:54.433Z,10224
2018-04-23T11:20:04.539Z,9852
2018-04-23T11:21:14.612Z,9780
2018-04-23T11:22:24.462Z,9880
2018-04-23T11:23:34.649Z,9836
2018-04-23T11:24:44.815Z,9848
2018-04-23T11:25:54.952Z,10000
2018-04-23T11:27:05.052Z,9908
2018-04-23T11:28:15.175Z,9584
2018-04-23T11:29:25.343Z,9504
2018-04-23T11:30:35.449Z,9436
2018-04-23T11:31:45.556Z,9268
2018-04-23T11:32:55.683Z,9572
2018-04-23T11:34:05.782Z,9884
2018-04-23T11:35:16.011Z,9896
2018-04-23T11:36:25.848Z,9840
2018-04-23T11:37:35.941Z,9812
2018-04-23T11:38:46.116Z,9680
2018-04-23T11:39:56.333Z,9700
2018-04-23T11:41:06.229Z,9632
2018-04-23T11:42:16.338Z,9716
2018-04-23T11:43:26.202Z,9800
2018-04-23T11:44:36.025Z,9672
2018-04-23T11:45:46.116Z,9704
2018-04-23T11:46:56.263Z,9664
2018-04-23T11:48:06.359Z,9572
2018-04-23T11:49:16.206Z,9368
2018-04-23T11:50:26.319Z,9308
2018-04-23T11:51:36.433Z,9052
2018-04-23T11:52:46.314Z,9048
2018-04-23T11:53:56.136Z,9072
2018-04-23T11:55:05.991Z,9008
2018-04-23T11:56:16.089Z,8644
2018-04-23T11:57:26.201Z,8748
2018-04-23T11:58:36.322Z,9236
2018-04-23T11:59:45.911Z,9360
2018-04-23T12:00:55.756Z,9260
2018-04-23T12:02:06.130Z,9484
2018-04-23T12:03:16.217Z,9724
2018-04-23T12:04:26.160Z,9732
2018-04-23T12:05:36.289Z,9716
2018-04-23T12:06:46.383Z,9864
2018-04-23T12:07:56.237Z,9804
2018-04-23T12:09:06.090Z,9516
2018-04-23T12:10:16.253Z,9404
2018-04-23T12:11:26.093Z,9644
2018-04-23T12:12:36.198Z,9628
2018-04-23T12:13:46.332Z,9492
2018-04-23T12:14:56.646Z,9264
2018-04-23T12:16:06.885Z,9296
2018-04-23T12:17:17.026Z,9168
2018-04-23T12:18:27.133Z,9124
2018-04-23T12:19:36.697Z,9204
2018-04-23T12:20:46.782Z,9008
2018-04-23T12:21:56.887Z,9072
2018-04-23T12:23:07.010Z,8968
2018-04-23T12:24:16.853Z,8896
2018-04-23T12:25:26.707Z,8724
2018-04-23T12:26:36.817Z,8672
2018-04-23T12:27:46.584Z,8768
2018-04-23T12:28:56.419Z,8760
2018-04-23T12:30:06.523Z,8884
2018-04-23T12:31:16.643Z,6412
2018-04-23T12:32:26.824Z,6536
2018-04-23T12:33:36.933Z,6352
2018-04-23T12:34:46.788Z,9064
2018-04-23T12:35:56.875Z,9028
2018-04-23T12:37:06.983Z,8964
2018-04-23T12:38:16.841Z,9160
2018-04-23T12:39:26.934Z,9220
2018-04-23T12:40:37.292Z,8984
2018-04-23T12:41:47.375Z,8904
2018-04-23T12:42:57.488Z,8684
2018-04-23T12:44:07.641Z,8452
2018-04-23T12:45:17.811Z,6404
2018-04-23T12:46:27.911Z,8400
2018-04-23T12:47:38.020Z,8576
2018-04-23T12:48:47.848Z,7884
2018-04-23T12:49:57.681Z,8636
2018-04-23T12:51:08.082Z,8728
2018-04-23T12:52:18.203Z,8692
2018-04-23T12:53:28.565Z,8732
2018-04-23T12:54:38.673Z,8664
2018-04-23T12:55:48.767Z,8656
2018-04-23T12:56:58.921Z,6072
2018-04-23T12:58:08.762Z,6136
2018-04-23T12:59:19.343Z,6272
2018-04-23T13:00:29.678Z,6200
2018-04-23T13:01:39.823Z,6240
2018-04-23T13:02:49.721Z,6452
2018-04-23T13:03:59.824Z,6508
2018-04-23T13:05:09.921Z,6676
2018-04-23T13:06:19.927Z,6752
2018-04-23T13:07:30.044Z,6772
2018-04-23T13:08:40.203Z,6620
2018-04-23T13:09:50.299Z,6524
2018-04-23T13:11:00.130Z,6544
2018-04-23T13:12:10.258Z,6784
2018-04-23T13:13:20.868Z,7292
2018-04-23T13:14:30.983Z,6764
2018-04-23T13:15:41.327Z,6640
2018-04-23T13:16:51.191Z,6468
2018-04-23T13:18:01.038Z,6240
2018-04-23T13:19:11.164Z,6128
2018-04-23T13:20:21.049Z,6104
2018-04-23T13:21:31.207Z,6100
2018-04-23T13:22:41.320Z,6128
2018-04-23T13:23:51.655Z,6152
2018-04-23T13:25:01.380Z,6136
2018-04-23T13:26:11.259Z,6112
2018-04-23T13:27:21.374Z,6204
2018-04-23T13:28:31.223Z,7760
2018-04-23T13:29:41.328Z,8628
2018-04-23T13:30:51.457Z,8916
2018-04-23T13:32:01.303Z,9144
2018-04-23T13:33:11.405Z,9328
2018-04-23T13:34:21.503Z,9316
2018-04-23T13:35:31.598Z,9212
2018-04-23T13:36:41.557Z,9100
2018-04-23T13:37:51.691Z,8948
2018-04-23T13:39:01.791Z,8648
2018-04-23T13:40:11.651Z,8432
2018-04-23T13:41:21.757Z,8340
2018-04-23T13:42:32.132Z,8336
2018-04-23T13:43:42.157Z,8256
2018-04-23T13:44:52.377Z,8188
2018-04-23T13:46:02.486Z,8100
2018-04-23T13:47:12.330Z,7740
2018-04-23T13:48:22.437Z,7744
2018-04-23T13:49:32.784Z,7708
2018-04-23T13:50:42.638Z,7436
2018-04-23T13:51:52.757Z,7076
2018-04-23T13:53:04.669Z,7192
2018-04-23T13:54:15.866Z,7360
2018-04-23T13:55:27.243Z,7192
2018-04-23T13:56:38.385Z,7316
2018-04-23T13:57:48.999Z,7188
2018-04-23T13:58:59.106Z,7112
2018-04-23T14:00:08.961Z,7016
2018-04-23T14:01:19.106Z,6932
2018-04-23T14:02:29.211Z,6968
2018-04-23T14:03:39.568Z,6768
2018-04-23T14:04:49.658Z,6900
2018-04-23T14:05:59.713Z,7068
2018-04-23T14:07:10.181Z,6992
2018-04-23T14:08:20.285Z,6900
2018-04-23T14:09:30.120Z,6804
2018-04-23T14:10:39.951Z,6344
2018-04-23T14:11:49.791Z,5936
2018-04-23T14:12:59.938Z,6684
2018-04-23T14:14:09.512Z,6800
2018-04-23T14:15:19.629Z,6856
2018-04-23T14:16:29.467Z,6792
2018-04-23T14:17:39.667Z,6244
2018-04-23T14:18:49.952Z,6284
2018-04-23T14:20:00.072Z,6552
2018-04-23T14:21:10.185Z,6180
2018-04-23T14:22:20.319Z,6352
2018-04-23T14:23:30.435Z,6480
2018-04-23T14:24:40.328Z,6424
2018-04-23T14:25:50.454Z,6392
2018-04-23T14:27:00.567Z,6132
2018-04-23T14:28:10.668Z,6336
2018-04-23T14:29:20.802Z,6316
2018-04-23T14:30:31.168Z,6264
2018-04-23T14:31:41.315Z,6240
2018-04-23T14:32:51.424Z,6216
2018-04-23T14:34:01.534Z,4892
2018-04-23T14:35:11.645Z,4424
2018-04-23T14:36:21.768Z,4356
2018-04-23T14:37:31.887Z,4780
2018-04-23T14:38:41.729Z,5568
2018-04-23T14:39:51.827Z,5992
2018-04-23T14:41:01.936Z,5812
2018-04-23T14:42:12.063Z,5628
2018-04-23T14:43:22.150Z,5584
2018-04-23T14:44:32.482Z,5324
2018-04-23T14:45:42.329Z,5532
2018-04-23T14:46:52.444Z,5580
2018-04-23T14:48:02.615Z,5512
2018-04-23T14:49:12.741Z,5348
2018-04-23T14:50:22.835Z,5424
2018-04-23T14:51:32.951Z,5628
2018-04-23T14:52:42.797Z,5636
2018-04-23T14:53:52.370Z,5596
2018-04-23T14:55:02.543Z,5576
2018-04-23T14:56:12.403Z,5532
2018-04-23T14:57:22.504Z,5416
2018-04-23T14:58:32.618Z,5356
2018-04-23T14:59:42.708Z,5300
2018-04-23T15:00:52.828Z,5320
2018-04-23T15:02:02.990Z,5332
2018-04-23T15:03:12.847Z,5284
2018-04-23T15:04:22.678Z,5268
2018-04-23T15:05:32.532Z,5192
2018-04-23T15:06:42.388Z,5136
2018-04-23T15:07:52.573Z,5084
2018-04-23T15:09:02.682Z,5052
2018-04-23T15:10:12.811Z,4984
2018-04-23T15:11:22.909Z,4952
2018-04-23T15:12:33.053Z,4964
2018-04-23T15:13:43.149Z,4936
2018-04-23T15:14:53.266Z,4920
2018-04-23T15:16:03.376Z,4868
2018-04-23T15:17:13.488Z,4812
2018-04-23T15:18:23.584Z,4788
2018-04-23T15:19:33.749Z,4816
2018-04-23T15:20:43.851Z,4772
2018-04-23T15:21:54.201Z,4744
2018-04-23T15:23:04.318Z,4712
2018-04-23T15:24:14.412Z,4648
2018-04-23T15:25:24.257Z,4592
2018-04-23T15:26:34.363Z,4564
2018-04-23T15:27:44.207Z,4540
2018-04-23T15:28:53.754Z,4480
2018-04-23T15:30:03.595Z,4416
2018-04-23T15:31:13.712Z,4404
2018-04-23T15:32:23.540Z,4360
2018-04-23T15:33:33.643Z,4324
2018-04-23T15:34:43.801Z,4264
2018-04-23T15:35:54.048Z,4212
2018-04-23T15:37:04.232Z,4164
2018-04-23T15:38:14.335Z,4188
2018-04-23T15:39:24.175Z,4152
2018-04-23T15:40:34.284Z,4128
2018-04-23T15:41:44.158Z,4124
2018-04-23T15:42:54.041Z,4096
2018-04-23T15:44:04.179Z,4088
2018-04-23T15:45:14.290Z,4060
2018-04-23T15:46:24.390Z,3996
2018-04-23T15:47:34.494Z,3964
2018-04-23T15:48:44.661Z,3776
2018-04-23T15:49:54.509Z,3744
2018-04-23T15:51:04.623Z,3576
2018-04-23T15:52:14.756Z,3708
2018-04-23T15:53:24.877Z,3724
2018-04-23T15:54:34.457Z,3736
2018-04-23T15:55:44.567Z,3704
2018-04-23T15:56:54.424Z,3656
2018-04-23T15:58:04.000Z,3736
2018-04-23T15:59:14.100Z,3784
2018-04-23T16:00:24.238Z,3756
2018-04-23T16:01:34.352Z,3780
2018-04-23T16:02:44.475Z,3776
2018-04-23T16:03:54.710Z,3760
2018-04-23T16:05:04.882Z,3704
2018-04-23T16:06:15.048Z,3616
2018-04-23T16:07:25.195Z,3524
2018-04-23T16:08:35.322Z,3512
2018-04-23T16:09:45.188Z,3464
2018-04-23T16:10:55.064Z,3476
2018-04-23T16:12:05.173Z,3476
2018-04-23T16:13:15.873Z,3532
2018-04-23T16:14:25.994Z,3484
2018-04-23T16:15:36.103Z,3400
2018-04-23T16:16:46.259Z,3384
2018-04-23T16:17:56.422Z,3352
2018-04-23T16:19:06.539Z,3280
2018-04-23T16:20:16.403Z,3248
2018-04-23T16:21:26.000Z,3020
2018-04-23T16:22:36.106Z,3132
2018-04-23T16:23:46.290Z,3088